createdAt,value
2022-11-03T00:01:46.573Z,5.88
2022-11-03T00:04:15.510Z,5.88
2022-11-03T00:06:43.150Z,5.45
2022-11-03T00:09:12.518Z,5.45
2022-11-03T00:11:40.882Z,5.60
2022-11-03T00:14:09.304Z,5.97
2022-11-03T00:16:36.478Z,5.57
2022-11-03T00:19:03.398Z,5.32
2022-11-03T00:21:30.518Z,5.82
2022-11-03T00:23:57.094Z,5.30
2022-11-03T00:26:28.145Z,5.70
2022-11-03T00:28:56.977Z,5.88
2022-11-03T00:31:26.354Z,5.60
2022-11-03T00:33:54.174Z,5.28
2022-11-03T00:36:23.183Z,5.20
2022-11-03T00:38:49.822Z,5.15
2022-11-03T00:41:17.174Z,5.43
2022-11-03T00:43:43.801Z,5.20
2022-11-03T00:46:10.657Z,5.97
2022-11-03T00:48:40.523Z,5.35
2022-11-03T00:51:19.017Z,5.75
2022-11-03T00:53:53.961Z,5.88
2022-11-03T00:56:27.635Z,6.03
2022-11-03T00:58:55.251Z,5.13
2022-11-03T01:01:24.321Z,5.63
2022-11-03T01:04:12.432Z,5.43
2022-11-03T01:06:50.673Z,5.45
2022-11-03T01:09:28.888Z,4.88
2022-11-03T01:12:00.172Z,5.18
2022-11-03T01:14:33.373Z,4.97
2022-11-03T01:17:00.230Z,5.25
2022-11-03T01:19:26.941Z,4.97
2022-11-03T01:21:54.195Z,5.03
2022-11-03T01:24:21.740Z,5.20
2022-11-03T01:26:48.682Z,4.57
2022-11-03T01:29:15.452Z,4.60
2022-11-03T01:31:42.202Z,4.97
2022-11-03T01:34:20.846Z,4.78
2022-11-03T01:36:47.926Z,4.80
2022-11-03T01:39:17.655Z,4.63
2022-11-03T01:41:46.640Z,4.57
2022-11-03T01:44:13.046Z,4.70
2022-11-03T01:47:12.074Z,4.60
2022-11-03T01:49:54.825Z,4.25
2022-11-03T01:52:27.868Z,4.47
2022-11-03T01:55:04.945Z,4.80
2022-11-03T01:57:37.807Z,4.90
2022-11-03T02:00:06.594Z,5.10
2022-11-03T02:02:35.805Z,4.68
2022-11-03T02:05:04.792Z,4.72
2022-11-03T02:07:38.358Z,5.28
2022-11-03T02:10:06.092Z,4.88
2022-11-03T02:12:33.769Z,5.32
2022-11-03T02:15:08.183Z,4.53
2022-11-03T02:17:36.408Z,5.22
2022-11-03T02:20:12.311Z,5.00
2022-11-03T02:22:50.803Z,4.90
2022-11-03T02:25:43.557Z,4.60
2022-11-03T02:28:12.199Z,4.53
2022-11-03T02:31:08.457Z,4.85
2022-11-03T02:33:59.701Z,5.20
2022-11-03T02:36:44.902Z,4.57
2022-11-03T02:39:34.820Z,4.97
2022-11-03T02:42:04.548Z,4.63
2022-11-03T02:44:33.413Z,4.50
2022-11-03T02:47:04.089Z,4.38
2022-11-03T02:49:30.599Z,4.50
2022-11-03T02:52:05.282Z,4.40
2022-11-03T02:54:47.808Z,6.88
2022-11-03T02:57:25.783Z,5.32
2022-11-03T03:00:12.902Z,4.70
2022-11-03T03:02:43.300Z,4.47
2022-11-03T03:05:12.154Z,4.82
2022-11-03T03:07:44.536Z,4.82
2022-11-03T03:10:23.786Z,4.32
2022-11-03T03:12:54.583Z,4.38
2022-11-03T03:15:28.729Z,4.43
2022-11-03T03:18:07.834Z,4.90
2022-11-03T03:20:39.852Z,4.80
2022-11-03T03:23:16.866Z,4.53
2022-11-03T03:25:49.748Z,4.40
2022-11-03T03:28:32.482Z,4.03
2022-11-03T03:31:11.864Z,4.60
2022-11-03T03:33:42.109Z,4.60
2022-11-03T03:36:15.796Z,4.20
2022-11-03T03:38:49.435Z,4.20
2022-11-03T03:41:22.005Z,4.25
2022-11-03T03:43:55.659Z,4.45
2022-11-03T03:46:25.491Z,4.35
2022-11-03T03:48:51.979Z,4.22
2022-11-03T03:51:22.764Z,4.47
2022-11-03T03:53:53.491Z,4.10
2022-11-03T03:56:43.526Z,4.45
2022-11-03T03:59:10.032Z,4.20
2022-11-03T04:01:36.716Z,3.85
2022-11-03T04:04:03.423Z,4.22
2022-11-03T04:06:30.175Z,4.70
2022-11-03T04:08:56.732Z,4.25
2022-11-03T04:11:41.688Z,4.82
2022-11-03T04:14:28.506Z,4.28
2022-11-03T04:17:13.889Z,4.50
2022-11-03T04:19:58.879Z,4.50
2022-11-03T04:22:30.969Z,4.63
2022-11-03T04:24:58.467Z,4.38
2022-11-03T04:27:24.869Z,4.80
2022-11-03T04:29:52.695Z,4.82
2022-11-03T04:32:19.129Z,4.50
2022-11-03T04:34:47.422Z,4.47
2022-11-03T04:37:15.071Z,4.35
2022-11-03T04:39:41.978Z,4.13
2022-11-03T04:42:20.723Z,4.35
2022-11-03T04:44:49.012Z,4.60
2022-11-03T04:47:17.664Z,4.22
2022-11-03T04:49:46.806Z,4.22
2022-11-03T04:52:16.980Z,4.85
2022-11-03T04:54:44.894Z,4.50
2022-11-03T04:57:18.877Z,4.68
2022-11-03T04:59:49.612Z,4.70
2022-11-03T05:02:22.024Z,4.75
2022-11-03T05:04:48.617Z,4.35
2022-11-03T05:07:35.906Z,4.93
2022-11-03T05:10:04.454Z,4.68
2022-11-03T05:12:31.100Z,5.25
2022-11-03T05:14:58.917Z,4.88
2022-11-03T05:17:27.718Z,4.82
2022-11-03T05:20:02.133Z,4.60
2022-11-03T05:22:34.234Z,5.22
2022-11-03T05:25:03.749Z,5.03
2022-11-03T05:27:30.504Z,5.78
2022-11-03T05:30:00.970Z,5.22
2022-11-03T05:32:33.073Z,4.93
2022-11-03T05:34:59.724Z,5.40
2022-11-03T05:37:32.700Z,5.28
2022-11-03T05:40:22.750Z,5.18
2022-11-03T05:42:58.998Z,5.65
2022-11-03T05:45:36.632Z,5.43
2022-11-03T05:48:14.024Z,5.45
2022-11-03T05:50:42.111Z,5.28
2022-11-03T05:53:23.819Z,5.25
2022-11-03T05:55:50.585Z,5.35
2022-11-03T05:58:23.106Z,5.13
2022-11-03T06:00:50.009Z,5.65
2022-11-03T06:03:21.365Z,5.80
2022-11-03T06:05:47.893Z,8.63
2022-11-03T06:08:25.510Z,5.57
2022-11-03T06:13:38.502Z,8.70
2022-11-03T06:16:31.829Z,5.75
2022-11-03T06:19:01.826Z,4.57
2022-11-03T06:21:28.612Z,4.88
2022-11-03T06:23:55.167Z,5.07
2022-11-03T06:26:25.243Z,5.25
2022-11-03T06:28:51.817Z,4.82
2022-11-03T06:31:23.162Z,5.38
2022-11-03T06:33:51.780Z,5.35
2022-11-03T06:36:37.260Z,4.82
2022-11-03T06:39:13.622Z,6.05
2022-11-03T06:41:40.062Z,5.22
2022-11-03T06:44:28.397Z,5.18
2022-11-03T06:46:59.993Z,5.53
2022-11-03T06:49:33.145Z,6.93
2022-11-03T06:52:11.896Z,7.30
2022-11-03T06:54:40.332Z,7.45
2022-11-03T06:57:14.344Z,4.93
2022-11-03T06:59:40.810Z,5.10
2022-11-03T07:02:37.537Z,4.97
2022-11-03T07:05:17.740Z,5.57
2022-11-03T07:07:44.178Z,5.53
2022-11-03T07:10:11.025Z,5.40
2022-11-03T07:12:37.692Z,5.22
2022-11-03T07:15:16.375Z,5.80
2022-11-03T07:17:42.748Z,5.38
2022-11-03T07:20:16.944Z,5.30
2022-11-03T07:22:45.770Z,5.00
2022-11-03T07:25:21.043Z,5.63
2022-11-03T07:27:55.030Z,5.70
2022-11-03T07:30:33.776Z,5.07
2022-11-03T07:33:12.549Z,6.00
2022-11-03T07:38:33.309Z,5.70
2022-11-03T07:41:00.244Z,5.47
2022-11-03T07:43:35.974Z,4.93
2022-11-03T07:46:04.041Z,4.93
2022-11-03T07:48:39.154Z,5.38
2022-11-03T07:51:17.664Z,5.47
2022-11-03T07:53:47.653Z,6.10
2022-11-03T07:56:20.274Z,4.90
2022-11-03T07:58:49.741Z,5.47
2022-11-03T08:01:37.126Z,5.50
2022-11-03T08:04:06.706Z,6.03
2022-11-03T08:06:33.414Z,5.57
2022-11-03T08:09:00.026Z,4.53
2022-11-03T08:11:29.264Z,5.10
2022-11-03T08:13:56.959Z,4.88
2022-11-03T08:16:24.167Z,4.45
2022-11-03T08:18:50.861Z,4.35
2022-11-03T08:21:17.460Z,4.22
2022-11-03T08:23:47.300Z,4.00
2022-11-03T08:26:14.761Z,3.65
2022-11-03T08:28:41.213Z,3.95
2022-11-03T08:31:12.287Z,3.22
2022-11-03T08:33:40.050Z,3.60
2022-11-03T08:36:11.868Z,3.45
2022-11-03T08:38:38.888Z,22.52
2022-11-03T08:41:05.600Z,7.93
2022-11-03T08:43:32.381Z,14.88
2022-11-03T08:46:08.362Z,4.95
2022-11-03T08:48:39.998Z,3.55
2022-11-03T08:51:08.364Z,3.60
2022-11-03T08:53:35.392Z,3.67
2022-11-03T08:56:02.695Z,3.60
2022-11-03T08:58:29.343Z,3.65
2022-11-03T09:00:55.861Z,3.10
2022-11-03T09:03:22.645Z,3.15
2022-11-03T09:05:49.933Z,2.88
2022-11-03T09:11:03.499Z,3.10
2022-11-03T09:13:30.054Z,2.90
2022-11-03T09:15:56.722Z,3.38
2022-11-03T09:18:23.258Z,3.03
2022-11-03T09:20:50.305Z,3.40
2022-11-03T09:23:19.269Z,2.80
2022-11-03T09:25:45.811Z,2.95
2022-11-03T09:28:14.690Z,3.03
2022-11-03T09:30:41.237Z,2.78
2022-11-03T09:33:07.623Z,3.80
2022-11-03T09:35:34.126Z,3.95
2022-11-03T09:38:00.852Z,4.85
2022-11-03T09:40:27.477Z,3.65
2022-11-03T09:42:54.191Z,2.90
2022-11-03T09:45:20.702Z,2.63
2022-11-03T09:47:47.311Z,3.53
2022-11-03T09:50:17.357Z,12.65
2022-11-03T09:52:50.325Z,3.10
2022-11-03T09:55:24.101Z,3.10
2022-11-03T09:57:52.918Z,2.83
2022-11-03T10:00:21.324Z,2.50
2022-11-03T10:02:49.619Z,2.95
2022-11-03T10:05:25.349Z,3.42
2022-11-03T10:07:58.145Z,3.65
2022-11-03T10:10:25.188Z,3.28
2022-11-03T10:12:55.893Z,3.08
2022-11-03T10:15:24.812Z,3.05
2022-11-03T10:17:52.146Z,3.50
2022-11-03T10:20:21.520Z,3.55
2022-11-03T10:22:53.165Z,4.40
2022-11-03T10:25:42.504Z,3.67
2022-11-03T10:28:18.113Z,3.60
2022-11-03T10:31:11.797Z,3.38
2022-11-03T10:33:41.349Z,3.42
2022-11-03T10:36:17.100Z,8.90
2022-11-03T10:38:44.379Z,3.60
2022-11-03T10:41:13.903Z,3.42
2022-11-03T10:43:42.304Z,3.33
2022-11-03T10:46:50.167Z,3.13
2022-11-03T10:49:12.495Z,3.85
2022-11-03T10:51:39.776Z,4.18
2022-11-03T10:54:11.659Z,3.90
2022-11-03T10:56:38.666Z,4.53
2022-11-03T10:59:05.277Z,4.28
2022-11-03T11:01:32.114Z,4.05
2022-11-03T11:03:59.091Z,4.20
2022-11-03T11:06:29.884Z,3.63
2022-11-03T11:11:30.942Z,3.85
2022-11-03T11:14:23.956Z,3.40
2022-11-03T11:16:53.346Z,6.57
2022-11-03T11:19:22.466Z,5.32
2022-11-03T11:21:49.530Z,3.80
2022-11-03T11:24:44.525Z,3.90
2022-11-03T11:27:32.766Z,3.88
2022-11-03T11:30:00.509Z,4.15
2022-11-03T11:32:39.246Z,3.83
2022-11-03T11:35:26.222Z,4.30
2022-11-03T11:37:54.310Z,4.30
2022-11-03T11:40:23.609Z,4.20
2022-11-03T11:43:13.208Z,4.03
2022-11-03T11:46:17.210Z,4.22
2022-11-03T11:48:43.911Z,4.45
2022-11-03T11:51:12.265Z,3.63
2022-11-03T11:53:44.849Z,3.90
2022-11-03T11:56:13.970Z,4.18
2022-11-03T11:58:49.402Z,4.30
2022-11-03T12:01:30.816Z,4.45
2022-11-03T12:04:00.677Z,4.13
2022-11-03T12:06:39.025Z,3.92
2022-11-03T12:09:23.512Z,4.07
2022-11-03T12:11:56.443Z,3.97
2022-11-03T12:14:34.355Z,3.72
2022-11-03T12:17:16.075Z,3.70
2022-11-03T12:19:52.614Z,3.78
2022-11-03T12:22:26.179Z,3.75
2022-11-03T12:25:00.863Z,6.93
2022-11-03T12:27:27.320Z,5.32
2022-11-03T12:29:55.813Z,4.53
2022-11-03T12:32:33.936Z,4.63
2022-11-03T12:35:06.548Z,3.85
2022-11-03T12:37:33.044Z,4.07
2022-11-03T12:39:59.617Z,4.20
2022-11-03T12:42:28.200Z,3.95
2022-11-03T12:44:55.977Z,4.13
2022-11-03T12:47:22.687Z,4.47
2022-11-03T12:49:49.533Z,4.43
2022-11-03T12:52:22.059Z,4.38
2022-11-03T12:54:49.130Z,4.53
2022-11-03T12:57:15.939Z,4.28
2022-11-03T12:59:42.773Z,5.15
2022-11-03T13:02:10.862Z,4.28
2022-11-03T13:04:38.190Z,4.22
2022-11-03T13:07:04.992Z,4.43
2022-11-03T13:09:32.132Z,4.07
2022-11-03T13:12:17.269Z,4.28
2022-11-03T13:14:46.148Z,4.00
2022-11-03T13:17:14.456Z,4.22
2022-11-03T13:19:41.112Z,5.65
2022-11-03T13:22:07.583Z,7.25
2022-11-03T13:24:34.066Z,4.38
2022-11-03T13:27:00.529Z,5.20
2022-11-03T13:29:31.064Z,5.05
2022-11-03T13:32:00.780Z,4.80
2022-11-03T13:34:27.200Z,4.57
2022-11-03T13:36:53.830Z,5.32
2022-11-03T13:39:21.184Z,4.40
2022-11-03T13:41:48.037Z,4.32
2022-11-03T13:44:14.617Z,6.53
2022-11-03T13:46:41.110Z,4.90
2022-11-03T13:51:54.237Z,4.18
2022-11-03T13:59:53.999Z,4.32
2022-11-03T14:05:11.240Z,4.43
2022-11-03T14:07:38.147Z,4.57
2022-11-03T14:10:08.120Z,4.60
2022-11-03T14:12:36.170Z,4.82
2022-11-03T14:15:06.917Z,5.32
2022-11-03T14:20:04.145Z,4.47
2022-11-03T14:22:31.958Z,5.32
2022-11-03T14:24:59.536Z,6.75
2022-11-03T14:27:26.357Z,4.53
2022-11-03T14:29:53.531Z,4.57
2022-11-03T14:32:21.352Z,4.72
2022-11-03T14:34:51.213Z,5.05
2022-11-03T14:37:18.177Z,4.60
2022-11-03T14:39:46.339Z,4.68
2022-11-03T14:42:17.251Z,4.78
2022-11-03T14:44:46.080Z,5.55
2022-11-03T14:47:15.849Z,5.63
2022-11-03T14:49:42.370Z,5.63
2022-11-03T14:52:09.039Z,7.95
2022-11-03T14:54:39.117Z,5.18
2022-11-03T14:57:06.023Z,7.43
2022-11-03T14:59:32.513Z,5.70
2022-11-03T15:01:59.639Z,6.00
2022-11-03T15:04:26.871Z,8.27
2022-11-03T15:06:54.379Z,5.80
2022-11-03T15:09:20.771Z,5.45
2022-11-03T15:11:47.337Z,6.28
2022-11-03T15:14:14.528Z,6.47
2022-11-03T15:16:41.148Z,5.53
2022-11-03T15:19:08.865Z,5.68
2022-11-03T15:21:35.599Z,5.95
2022-11-03T15:26:49.370Z,6.80
2022-11-03T15:29:15.997Z,6.30
2022-11-03T15:31:47.472Z,5.93
2022-11-03T15:34:15.214Z,6.15
2022-11-03T15:36:41.734Z,6.75
2022-11-03T15:39:08.228Z,6.60
2022-11-03T15:41:34.701Z,6.80
2022-11-03T15:44:01.434Z,5.82
2022-11-03T15:46:31.060Z,5.78
2022-11-03T15:48:57.932Z,6.30
2022-11-03T15:51:25.487Z,7.90
2022-11-03T15:53:57.914Z,6.90
2022-11-03T15:56:26.483Z,5.55
2022-11-03T15:58:54.292Z,8.80
2022-11-03T16:01:21.471Z,6.35
2022-11-03T16:03:48.222Z,9.20
2022-11-03T16:06:14.872Z,7.93
2022-11-03T16:08:41.560Z,9.18
2022-11-03T16:11:09.176Z,11.50
2022-11-03T16:13:37.744Z,10.13
2022-11-03T16:16:04.772Z,12.25
2022-11-03T16:18:31.472Z,12.75
2022-11-03T16:21:01.343Z,8.43
2022-11-03T16:23:30.586Z,9.38
2022-11-03T16:26:05.193Z,9.85
2022-11-03T16:28:31.943Z,7.18
2022-11-03T16:30:58.771Z,10.73
2022-11-03T16:33:25.458Z,8.25
2022-11-03T16:35:52.675Z,12.18
2022-11-03T16:38:19.295Z,10.80
2022-11-03T16:40:47.874Z,11.18
2022-11-03T16:43:14.412Z,12.57
2022-11-03T16:45:40.897Z,13.50
2022-11-03T16:48:12.703Z,12.80
2022-11-03T16:50:41.542Z,9.48
2022-11-03T16:53:11.138Z,10.95
2022-11-03T16:55:37.909Z,15.15
2022-11-03T16:58:04.435Z,10.93
2022-11-03T17:00:31.291Z,14.55
2022-11-03T17:02:59.747Z,11.48
2022-11-03T17:05:27.073Z,10.18
2022-11-03T17:07:54.410Z,13.35
2022-11-03T17:10:22.346Z,9.20
2022-11-03T17:12:49.818Z,8.80
2022-11-03T17:15:17.341Z,8.80
2022-11-03T17:17:44.264Z,10.60
2022-11-03T17:20:12.157Z,9.70
2022-11-03T17:22:39.127Z,10.02
2022-11-03T17:25:07.959Z,11.52
2022-11-03T17:27:42.003Z,10.18
2022-11-03T17:30:31.986Z,10.00
2022-11-03T17:33:05.398Z,10.50
2022-11-03T17:35:41.936Z,10.60
2022-11-03T17:38:15.394Z,10.07
2022-11-03T17:40:44.363Z,10.50
2022-11-03T17:43:31.252Z,9.77
2022-11-03T17:45:57.734Z,9.88
2022-11-03T17:48:24.279Z,9.77
2022-11-03T17:50:53.648Z,10.15
2022-11-03T17:53:23.359Z,10.27
2022-11-03T17:56:08.740Z,10.90
2022-11-03T17:58:43.210Z,12.65
2022-11-03T18:01:15.184Z,10.30
2022-11-03T18:03:41.956Z,9.63
2022-11-03T18:06:18.959Z,10.38
2022-11-03T18:08:49.184Z,10.35
2022-11-03T18:11:41.029Z,10.35
2022-11-03T18:14:07.507Z,10.93
2022-11-03T18:16:34.564Z,14.05
2022-11-03T18:19:01.055Z,9.40
2022-11-03T18:21:29.756Z,10.10
2022-11-03T18:23:56.251Z,11.70
2022-11-03T18:26:25.610Z,11.82
2022-11-03T18:28:52.481Z,9.90
2022-11-03T18:31:34.495Z,9.43
2022-11-03T18:34:09.760Z,10.18
2022-11-03T18:36:37.959Z,11.18
2022-11-03T18:39:04.644Z,17.95
2022-11-03T18:41:39.168Z,12.77
2022-11-03T18:44:29.181Z,10.45
2022-11-03T18:46:56.207Z,9.10
2022-11-03T18:49:24.719Z,9.95
2022-11-03T18:52:00.917Z,9.68
2022-11-03T18:54:30.644Z,9.13
2022-11-03T18:56:57.634Z,10.63
2022-11-03T18:59:31.728Z,9.45
2022-11-03T19:01:58.221Z,14.35
2022-11-03T19:04:24.819Z,9.75
2022-11-03T19:06:52.849Z,10.63
2022-11-03T19:09:22.621Z,8.93
2022-11-03T19:11:50.232Z,11.15
2022-11-03T19:14:23.714Z,8.45
2022-11-03T19:17:21.306Z,8.07
2022-11-03T19:19:39.282Z,7.68
2022-11-03T19:22:11.876Z,7.85
2022-11-03T19:24:38.544Z,7.35
2022-11-03T19:27:06.606Z,17.70
2022-11-03T19:29:38.432Z,7.13
2022-11-03T19:32:05.893Z,8.15
2022-11-03T19:34:35.231Z,8.90
2022-11-03T19:37:01.742Z,8.10
2022-11-03T19:39:37.074Z,10.18
2022-11-03T19:42:36.798Z,10.00
2022-11-03T19:45:10.804Z,8.93
2022-11-03T19:47:47.879Z,8.40
2022-11-03T19:50:23.221Z,10.40
2022-11-03T19:52:50.254Z,7.70
2022-11-03T19:55:19.358Z,7.57
2022-11-03T19:57:45.855Z,8.23
2022-11-03T20:00:17.404Z,7.50
2022-11-03T20:02:44.983Z,7.95
2022-11-03T20:05:15.124Z,8.90
2022-11-03T20:07:43.453Z,7.53
2022-11-03T20:10:17.847Z,8.60
2022-11-03T20:12:45.285Z,7.72
2022-11-03T20:15:16.336Z,6.72
2022-11-03T20:17:44.552Z,7.78
2022-11-03T20:20:20.086Z,6.97
2022-11-03T20:22:49.770Z,6.95
2022-11-03T20:25:20.936Z,6.88
2022-11-03T20:27:47.774Z,7.63
2022-11-03T20:30:17.221Z,6.97
2022-11-03T20:32:46.000Z,7.82
2022-11-03T20:35:23.127Z,7.40
2022-11-03T20:37:53.136Z,8.73
2022-11-03T20:40:22.540Z,12.73
2022-11-03T20:42:51.676Z,8.13
2022-11-03T20:45:20.527Z,9.20
2022-11-03T20:47:48.434Z,7.30
2022-11-03T20:50:16.729Z,6.82
2022-11-03T20:52:44.384Z,7.30
2022-11-03T20:55:24.984Z,7.25
2022-11-03T20:57:54.738Z,7.50
2022-11-03T21:00:27.174Z,6.53
2022-11-03T21:02:55.480Z,7.30
2022-11-03T21:05:27.582Z,7.18
2022-11-03T21:07:55.630Z,7.65
2022-11-03T21:10:23.633Z,8.05
2022-11-03T21:12:57.670Z,8.95
2022-11-03T21:16:03.618Z,8.80
2022-11-03T21:18:48.806Z,13.07
2022-11-03T21:21:20.809Z,9.05
2022-11-03T21:23:47.715Z,10.43
2022-11-03T21:26:14.150Z,11.35
2022-11-03T21:28:41.305Z,11.98
2022-11-03T21:31:13.869Z,11.82
2022-11-03T21:33:40.362Z,13.40
2022-11-03T21:36:07.209Z,13.23
2022-11-03T21:38:33.668Z,12.48
2022-11-03T21:41:20.073Z,12.90
2022-11-03T21:44:05.664Z,12.73
2022-11-03T21:46:32.135Z,14.43
2022-11-03T21:49:17.084Z,15.65
2022-11-03T21:51:43.511Z,15.57
2022-11-03T21:54:09.899Z,16.00
2022-11-03T21:56:36.265Z,18.73
2022-11-03T21:59:02.788Z,15.82
2022-11-03T22:01:29.282Z,15.57
2022-11-03T22:03:58.215Z,16.42
2022-11-03T22:06:24.575Z,19.48
2022-11-03T22:08:52.351Z,20.40
2022-11-03T22:11:21.598Z,14.45
2022-11-03T22:13:59.433Z,17.63
2022-11-03T22:16:42.347Z,14.07
2022-11-03T22:19:38.468Z,15.10
2022-11-03T22:22:29.253Z,15.25
2022-11-03T22:25:14.317Z,16.08
2022-11-03T22:27:41.578Z,14.20
2022-11-03T22:30:27.338Z,14.48
2022-11-03T22:32:55.855Z,14.10
2022-11-03T22:35:42.436Z,13.98
2022-11-03T22:38:14.535Z,14.48
2022-11-03T22:41:01.141Z,13.52
2022-11-03T22:43:46.152Z,12.88
2022-11-03T22:46:14.599Z,13.18
2022-11-03T22:48:41.558Z,11.65
2022-11-03T22:51:13.328Z,13.43
2022-11-03T22:53:58.881Z,13.00
2022-11-03T22:56:27.314Z,11.65
2022-11-03T22:58:54.185Z,11.60
2022-11-03T23:01:23.366Z,11.38
2022-11-03T23:03:50.263Z,12.73
2022-11-03T23:06:21.805Z,14.60
2022-11-03T23:08:49.653Z,13.48
2022-11-03T23:11:18.874Z,13.52
2022-11-03T23:13:53.877Z,13.48
2022-11-03T23:16:23.073Z,13.07
2022-11-03T23:19:08.094Z,12.18
2022-11-03T23:21:37.483Z,11.20
2022-11-03T23:24:23.099Z,12.63
2022-11-03T23:26:49.876Z,13.27
2022-11-03T23:29:16.959Z,11.70
2022-11-03T23:31:44.597Z,11.05
2022-11-03T23:34:12.454Z,11.65
2022-11-03T23:36:39.362Z,11.18
2022-11-03T23:39:06.381Z,13.60
2022-11-03T23:41:33.342Z,11.45
2022-11-03T23:43:59.872Z,12.60
2022-11-03T23:46:46.954Z,11.85
2022-11-03T23:49:14.405Z,12.30
2022-11-03T23:51:41.917Z,11.52
2022-11-03T23:54:10.387Z,12.70
2022-11-03T23:56:58.506Z,11.95
2022-11-03T23:59:26.401Z,13.18
